createdAt,value
2022-08-18T00:01:58.842Z,40.07
2022-08-18T00:04:35.488Z,36.03
2022-08-18T00:07:03.288Z,36.27
2022-08-18T00:09:32.686Z,38.10
2022-08-18T00:12:04.112Z,36.50
2022-08-18T00:14:31.085Z,38.50
2022-08-18T00:16:57.911Z,40.90
2022-08-18T00:19:46.964Z,38.50
2022-08-18T00:22:15.878Z,54.07
2022-08-18T00:24:47.530Z,50.60
2022-08-18T00:27:21.636Z,47.90
2022-08-18T00:29:49.393Z,47.20
2022-08-18T00:32:19.350Z,52.67
2022-08-18T00:34:46.046Z,46.13
2022-08-18T00:37:12.728Z,50.00
2022-08-18T00:39:45.976Z,50.13
2022-08-18T00:42:29.072Z,53.13
2022-08-18T00:45:01.862Z,48.63
2022-08-18T00:47:33.123Z,49.50
2022-08-18T00:50:15.756Z,41.70
2022-08-18T00:52:47.750Z,39.57
2022-08-18T00:55:15.287Z,40.00
2022-08-18T00:57:43.109Z,39.57
2022-08-18T01:00:12.911Z,38.33
2022-08-18T01:02:47.695Z,41.50
2022-08-18T01:05:33.806Z,41.80
2022-08-18T01:08:01.035Z,44.10
2022-08-18T01:10:27.769Z,45.53
2022-08-18T01:12:56.800Z,45.30
2022-08-18T01:15:28.874Z,44.00
2022-08-18T01:18:17.640Z,42.50
2022-08-18T01:21:28.608Z,39.53
2022-08-18T01:23:57.185Z,41.67
2022-08-18T01:26:26.664Z,43.50
2022-08-18T01:28:53.988Z,48.70
2022-08-18T01:31:39.198Z,47.37
2022-08-18T01:34:07.698Z,53.60
2022-08-18T01:36:37.452Z,53.83
2022-08-18T01:39:07.099Z,67.77
2022-08-18T01:41:33.934Z,56.67
2022-08-18T01:44:02.071Z,52.50
2022-08-18T01:46:31.674Z,54.93
2022-08-18T01:49:00.593Z,53.37
2022-08-18T01:51:40.180Z,61.73
2022-08-18T01:54:10.234Z,58.90
2022-08-18T01:56:37.025Z,61.10
2022-08-18T01:59:04.744Z,52.60
2022-08-18T02:01:34.823Z,51.47
2022-08-18T02:04:33.150Z,52.50
2022-08-18T02:06:54.311Z,52.70
2022-08-18T02:09:23.732Z,51.53
2022-08-18T02:11:52.984Z,49.83
2022-08-18T02:14:25.039Z,49.13
2022-08-18T02:17:01.334Z,46.50
2022-08-18T02:19:38.207Z,49.90
2022-08-18T02:22:06.319Z,48.60
2022-08-18T02:24:33.003Z,50.50
2022-08-18T02:27:00.077Z,51.10
2022-08-18T02:29:26.935Z,49.63
2022-08-18T02:31:53.662Z,49.17
2022-08-18T02:34:20.419Z,47.53
2022-08-18T02:36:47.138Z,44.60
2022-08-18T02:39:13.798Z,48.70
2022-08-18T02:41:40.482Z,51.67
2022-08-18T02:44:09.029Z,52.73
2022-08-18T02:46:37.088Z,50.27
2022-08-18T02:49:05.461Z,48.37
2022-08-18T02:51:32.119Z,51.23
2022-08-18T02:54:01.727Z,46.60
2022-08-18T02:56:41.639Z,48.47
2022-08-18T02:59:19.754Z,49.40
2022-08-18T03:01:51.364Z,47.00
2022-08-18T03:04:28.108Z,49.23
2022-08-18T03:06:58.311Z,42.87
2022-08-18T03:09:24.980Z,45.20
2022-08-18T03:11:52.756Z,46.63
2022-08-18T03:14:19.534Z,48.60
2022-08-18T03:16:53.883Z,47.07
2022-08-18T03:19:23.875Z,47.50
2022-08-18T03:21:50.821Z,43.20
2022-08-18T03:24:22.320Z,41.77
2022-08-18T03:26:51.110Z,44.50
2022-08-18T03:29:17.901Z,46.73
2022-08-18T03:31:45.378Z,41.50
2022-08-18T03:34:12.935Z,43.63
2022-08-18T03:36:39.764Z,45.60
2022-08-18T03:39:09.301Z,49.57
2022-08-18T03:41:57.208Z,74.90
2022-08-18T03:44:27.969Z,96.20
2022-08-18T03:46:54.750Z,73.23
2022-08-18T03:49:21.465Z,76.87
2022-08-18T03:51:48.933Z,88.73
2022-08-18T03:54:17.950Z,96.90
2022-08-18T03:56:47.499Z,115.10
2022-08-18T03:59:17.948Z,95.30
2022-08-18T04:01:45.745Z,117.57
2022-08-18T04:04:15.695Z,128.43
2022-08-18T04:06:50.766Z,124.57
2022-08-18T04:09:19.034Z,150.10
2022-08-18T04:11:46.576Z,149.07
2022-08-18T04:14:15.286Z,158.60
2022-08-18T04:16:42.549Z,162.97
2022-08-18T04:19:13.305Z,147.03
2022-08-18T04:21:42.145Z,154.13
2022-08-18T04:24:10.733Z,179.93
2022-08-18T04:26:44.992Z,246.43
2022-08-18T04:29:13.604Z,158.67
2022-08-18T04:31:40.837Z,175.70
2022-08-18T04:34:07.529Z,171.87
2022-08-18T04:36:36.060Z,167.50
2022-08-18T04:39:05.394Z,208.33
2022-08-18T04:41:32.083Z,206.10
2022-08-18T04:44:01.299Z,189.13
2022-08-18T04:46:29.299Z,159.37
2022-08-18T04:49:01.242Z,164.90
2022-08-18T04:52:36.296Z,196.70
2022-08-18T04:54:16.473Z,188.53
2022-08-18T04:56:43.418Z,183.83
2022-08-18T04:59:12.535Z,173.20
2022-08-18T05:01:45.715Z,183.03
2022-08-18T05:04:14.342Z,168.87
2022-08-18T05:06:43.248Z,164.47
2022-08-18T05:09:11.410Z,144.60
2022-08-18T05:11:39.078Z,144.23
2022-08-18T05:14:08.483Z,128.53
2022-08-18T05:16:48.221Z,146.30
2022-08-18T05:19:21.976Z,154.87
2022-08-18T05:21:51.568Z,142.80
2022-08-18T05:24:20.296Z,151.93
2022-08-18T05:26:51.203Z,144.87
2022-08-18T05:29:19.869Z,144.00
2022-08-18T05:31:48.228Z,127.10
2022-08-18T05:34:16.192Z,125.57
2022-08-18T05:36:49.059Z,132.57
2022-08-18T05:39:18.941Z,130.73
2022-08-18T05:41:48.959Z,130.63
2022-08-18T05:44:21.931Z,127.23
2022-08-18T05:46:55.415Z,126.20
2022-08-18T05:49:24.293Z,124.20
2022-08-18T05:52:05.028Z,127.30
2022-08-18T05:55:00.103Z,128.00
2022-08-18T05:57:30.681Z,131.63
2022-08-18T05:59:58.090Z,127.83
2022-08-18T06:02:42.155Z,133.27
2022-08-18T06:05:31.929Z,135.50
2022-08-18T06:08:13.741Z,135.90
2022-08-18T06:10:46.282Z,141.73
2022-08-18T06:13:13.539Z,123.93
2022-08-18T06:15:58.628Z,123.70
2022-08-18T06:18:50.184Z,120.87
2022-08-18T06:21:39.374Z,108.10
2022-08-18T06:24:32.107Z,117.80
2022-08-18T06:27:09.045Z,114.00
2022-08-18T06:29:47.850Z,105.13
2022-08-18T06:32:34.205Z,108.20
2022-08-18T06:35:18.198Z,105.07
2022-08-18T06:38:22.599Z,100.67
2022-08-18T06:40:49.998Z,114.47
2022-08-18T06:43:17.398Z,99.73
2022-08-18T06:45:51.230Z,113.47
2022-08-18T06:48:27.160Z,109.00
2022-08-18T06:50:58.600Z,110.77
2022-08-18T06:53:56.484Z,99.13
2022-08-18T06:56:43.368Z,101.67
2022-08-18T06:59:29.111Z,101.73
2022-08-18T07:02:16.938Z,110.10
2022-08-18T07:04:58.143Z,117.67
2022-08-18T07:07:40.215Z,113.30
2022-08-18T07:10:17.583Z,112.37
2022-08-18T07:12:44.229Z,96.00
2022-08-18T07:15:13.306Z,91.80
2022-08-18T07:17:53.092Z,94.33
2022-08-18T07:20:23.622Z,98.53
2022-08-18T07:23:07.919Z,86.87
2022-08-18T07:25:42.675Z,98.83
2022-08-18T07:28:33.237Z,85.73
2022-08-18T07:31:35.046Z,87.40
2022-08-18T07:34:08.347Z,85.30
2022-08-18T07:36:47.563Z,89.97
2022-08-18T07:39:21.433Z,78.47
2022-08-18T07:42:11.127Z,83.93
2022-08-18T07:45:04.232Z,77.83
2022-08-18T07:47:54.882Z,72.33
2022-08-18T07:50:55.192Z,78.00
2022-08-18T07:53:37.358Z,73.03
2022-08-18T07:56:22.619Z,81.07
2022-08-18T07:58:58.467Z,72.27
2022-08-18T08:01:34.358Z,76.93
2022-08-18T08:04:26.184Z,84.37
2022-08-18T08:07:26.220Z,90.27
2022-08-18T08:10:04.661Z,88.53
2022-08-18T08:13:08.452Z,97.17
2022-08-18T08:15:42.351Z,92.17
2022-08-18T08:18:28.774Z,92.27
2022-08-18T08:21:00.368Z,83.93
2022-08-18T08:23:27.396Z,80.87
2022-08-18T08:26:15.054Z,83.23
2022-08-18T08:28:57.049Z,84.27
2022-08-18T08:32:00.823Z,82.47
2022-08-18T08:34:54.402Z,85.10
2022-08-18T08:37:46.830Z,79.80
2022-08-18T08:40:21.775Z,84.93
2022-08-18T08:42:57.647Z,81.73
2022-08-18T08:45:32.184Z,84.87
2022-08-18T08:48:09.480Z,84.33
2022-08-18T08:51:03.453Z,81.67
2022-08-18T08:53:35.160Z,83.80
2022-08-18T08:56:07.985Z,88.23
2022-08-18T08:58:40.290Z,84.33
2022-08-18T09:01:27.553Z,86.37
2022-08-18T09:04:04.433Z,81.50
2022-08-18T09:07:08.335Z,85.00
2022-08-18T09:10:01.942Z,79.53
2022-08-18T09:12:46.360Z,77.23
2022-08-18T09:15:51.800Z,76.63
2022-08-18T09:18:30.804Z,78.80
2022-08-18T09:21:15.913Z,83.90
2022-08-18T09:23:46.898Z,75.23
2022-08-18T09:26:45.074Z,73.63
2022-08-18T09:29:45.783Z,73.67
2022-08-18T09:32:18.529Z,72.30
2022-08-18T09:34:56.404Z,74.37
2022-08-18T09:37:34.074Z,52.47
2022-08-18T09:41:01.119Z,63.47
2022-08-18T09:43:36.761Z,64.10
2022-08-18T09:46:05.930Z,65.20
2022-08-18T09:48:34.286Z,65.93
2022-08-18T09:51:17.698Z,61.57
2022-08-18T09:53:52.479Z,59.63
2022-08-18T09:56:54.358Z,62.27
2022-08-18T09:59:34.769Z,58.37
2022-08-18T10:02:20.162Z,55.67
2022-08-18T10:05:19.815Z,55.60
2022-08-18T10:07:53.181Z,59.50
2022-08-18T10:14:05.248Z,54.30
2022-08-18T10:20:26.712Z,57.37
2022-08-18T10:22:56.338Z,55.17
2022-08-18T10:25:42.995Z,55.80
2022-08-18T10:28:31.273Z,56.57
2022-08-18T10:31:06.406Z,52.90
2022-08-18T10:36:59.911Z,59.73
2022-08-18T10:39:39.771Z,50.23
2022-08-18T10:42:17.833Z,50.50
2022-08-18T10:44:47.594Z,54.53
2022-08-18T10:47:33.207Z,51.70
2022-08-18T10:50:05.107Z,49.37
2022-08-18T10:53:33.165Z,51.83
2022-08-18T10:56:01.206Z,47.40
2022-08-18T10:58:40.521Z,47.90
2022-08-18T11:01:14.409Z,51.53
2022-08-18T11:03:51.164Z,48.50
2022-08-18T11:06:23.427Z,46.07
2022-08-18T11:08:55.213Z,44.90
2022-08-18T11:11:34.726Z,46.00
2022-08-18T11:14:26.468Z,42.77
2022-08-18T11:17:15.984Z,39.80
2022-08-18T11:19:45.051Z,41.90
2022-08-18T11:22:31.556Z,43.83
2022-08-18T11:25:00.749Z,40.43
2022-08-18T11:27:35.579Z,41.17
2022-08-18T11:30:05.552Z,39.57
2022-08-18T11:32:39.386Z,44.03
2022-08-18T11:35:23.947Z,39.50
2022-08-18T11:38:12.413Z,39.17
2022-08-18T11:43:41.822Z,37.33
2022-08-18T11:46:29.615Z,36.57
2022-08-18T11:48:59.986Z,36.17
2022-08-18T11:51:33.248Z,42.80
2022-08-18T11:54:24.737Z,37.80
2022-08-18T11:56:51.898Z,37.33
2022-08-18T11:59:52.480Z,35.50
2022-08-18T12:02:20.843Z,36.47
2022-08-18T12:04:53.017Z,36.30
2022-08-18T12:07:57.198Z,36.87
2022-08-18T12:10:28.063Z,36.07
2022-08-18T12:12:57.493Z,37.50
2022-08-18T12:15:43.829Z,34.83
2022-08-18T12:18:26.484Z,37.73
2022-08-18T12:20:58.222Z,33.70
2022-08-18T12:23:25.206Z,31.50
2022-08-18T12:25:52.107Z,37.53
2022-08-18T12:28:22.407Z,32.37
2022-08-18T12:30:56.636Z,35.40
2022-08-18T12:33:25.143Z,36.43
2022-08-18T12:35:52.582Z,33.67
2022-08-18T12:38:19.323Z,30.63
2022-08-18T12:40:46.067Z,29.97
2022-08-18T12:43:13.006Z,36.17
2022-08-18T12:45:40.362Z,34.00
2022-08-18T12:48:08.788Z,35.60
2022-08-18T12:50:49.603Z,34.37
2022-08-18T12:56:21.523Z,34.30
2022-08-18T12:58:49.715Z,29.63
2022-08-18T13:01:20.205Z,32.00
2022-08-18T13:04:03.660Z,32.50
2022-08-18T13:06:41.273Z,33.93
2022-08-18T13:09:35.306Z,33.47
2022-08-18T13:12:14.787Z,32.67
2022-08-18T13:14:43.487Z,28.43
2022-08-18T13:17:15.257Z,32.93
2022-08-18T13:19:57.270Z,29.30
2022-08-18T13:22:32.783Z,29.57
2022-08-18T13:25:06.926Z,27.47
2022-08-18T13:27:36.104Z,25.07
2022-08-18T13:30:29.590Z,27.83
2022-08-18T13:33:00.688Z,28.70
2022-08-18T13:35:38.008Z,28.17
2022-08-18T13:38:17.132Z,28.40
2022-08-18T13:40:48.506Z,28.47
2022-08-18T13:43:17.889Z,29.40
2022-08-18T13:45:46.981Z,24.87
2022-08-18T13:48:20.050Z,29.87
2022-08-18T13:50:52.743Z,24.63
2022-08-18T13:53:21.152Z,23.33
2022-08-18T13:55:48.506Z,27.43
2022-08-18T13:58:20.529Z,27.77
2022-08-18T14:00:52.186Z,25.67
2022-08-18T14:03:42.716Z,26.80
2022-08-18T14:06:13.037Z,27.33
2022-08-18T14:08:40.396Z,27.97
2022-08-18T14:11:07.446Z,26.03
2022-08-18T14:13:38.089Z,27.90
2022-08-18T14:16:18.731Z,27.33
2022-08-18T14:19:17.624Z,25.33
2022-08-18T14:22:06.983Z,24.60
2022-08-18T14:24:57.914Z,27.17
2022-08-18T14:27:35.026Z,27.47
2022-08-18T14:30:12.146Z,25.53
2022-08-18T14:32:48.722Z,25.40
2022-08-18T14:36:03.731Z,22.93
2022-08-18T14:38:05.035Z,25.60
2022-08-18T14:40:33.297Z,25.00
2022-08-18T14:43:01.855Z,21.60
2022-08-18T14:45:34.418Z,20.60
2022-08-18T14:48:07.289Z,22.40
2022-08-18T14:50:38.814Z,23.20
2022-08-18T14:53:06.417Z,21.77
2022-08-18T14:55:34.214Z,19.80
2022-08-18T14:58:01.399Z,20.10
2022-08-18T15:00:30.141Z,25.47
2022-08-18T15:02:59.488Z,22.30
2022-08-18T15:05:27.133Z,22.30
2022-08-18T15:07:54.028Z,23.47
2022-08-18T15:10:23.733Z,22.10
2022-08-18T15:12:55.337Z,23.10
2022-08-18T15:15:22.558Z,21.67
2022-08-18T15:17:52.642Z,22.00
2022-08-18T15:20:29.706Z,22.87
2022-08-18T15:23:24.683Z,24.27
2022-08-18T15:25:51.977Z,23.87
2022-08-18T15:28:21.499Z,23.70
2022-08-18T15:31:16.609Z,24.53
2022-08-18T15:33:38.858Z,28.57
2022-08-18T15:36:05.703Z,24.80
2022-08-18T15:38:36.811Z,25.40
2022-08-18T15:41:06.354Z,25.60
2022-08-18T15:43:37.021Z,23.63
2022-08-18T15:46:14.027Z,27.63
2022-08-18T15:48:43.675Z,25.30
2022-08-18T15:51:12.037Z,24.47
2022-08-18T15:53:45.009Z,27.60
2022-08-18T15:56:31.912Z,26.23
2022-08-18T15:59:04.153Z,28.90
2022-08-18T16:01:32.204Z,27.80
2022-08-18T16:04:00.419Z,31.47
2022-08-18T16:06:32.282Z,30.07
2022-08-18T16:09:01.014Z,28.73
2022-08-18T16:11:28.966Z,29.90
2022-08-18T16:13:58.651Z,27.73
2022-08-18T16:16:29.736Z,26.37
2022-08-18T16:19:06.078Z,26.43
2022-08-18T16:21:33.554Z,27.87
2022-08-18T16:24:00.180Z,27.50
2022-08-18T16:26:26.845Z,26.93
2022-08-18T16:28:53.589Z,26.93
2022-08-18T16:31:26.021Z,27.37
2022-08-18T16:33:53.765Z,27.93
2022-08-18T16:36:22.121Z,28.07
2022-08-18T16:38:48.762Z,29.07
2022-08-18T16:41:20.770Z,26.17
2022-08-18T16:43:47.828Z,26.07
2022-08-18T16:46:21.528Z,26.30
2022-08-18T16:48:49.445Z,27.13
2022-08-18T16:51:19.189Z,24.00
2022-08-18T16:53:47.319Z,23.77
2022-08-18T16:56:16.904Z,24.33
2022-08-18T16:59:02.061Z,22.27
2022-08-18T17:01:49.033Z,21.37
2022-08-18T17:04:24.034Z,23.23
2022-08-18T17:06:51.044Z,21.57
2022-08-18T17:09:19.433Z,21.30
2022-08-18T17:11:51.567Z,20.27
2022-08-18T17:14:20.642Z,20.40
2022-08-18T17:16:49.364Z,19.00
2022-08-18T17:19:16.044Z,19.47
2022-08-18T17:21:43.009Z,20.03
2022-08-18T17:24:10.580Z,20.13
2022-08-18T17:26:59.511Z,19.20
2022-08-18T17:29:46.000Z,20.60
2022-08-18T17:32:21.507Z,18.20
2022-08-18T17:34:53.954Z,19.60
2022-08-18T17:37:23.953Z,18.63
2022-08-18T17:40:15.383Z,18.60
2022-08-18T17:42:42.052Z,16.73
2022-08-18T17:45:13.654Z,16.57
2022-08-18T17:47:54.901Z,16.53
2022-08-18T17:50:45.826Z,17.40
2022-08-18T17:53:13.548Z,16.80
2022-08-18T17:55:47.145Z,18.27
2022-08-18T17:58:31.062Z,18.60
2022-08-18T18:00:57.762Z,18.30
2022-08-18T18:03:24.434Z,16.47
2022-08-18T18:05:57.839Z,17.90
2022-08-18T18:08:53.970Z,18.43
2022-08-18T18:11:31.214Z,18.90
2022-08-18T18:14:18.849Z,17.93
2022-08-18T18:17:00.270Z,16.00
2022-08-18T18:19:30.737Z,17.00
2022-08-18T18:22:24.925Z,16.23
2022-08-18T18:25:07.502Z,17.83
2022-08-18T18:27:39.817Z,16.40
2022-08-18T18:30:27.686Z,16.87
2022-08-18T18:33:02.966Z,17.80
2022-08-18T18:35:54.925Z,16.40
2022-08-18T18:38:35.073Z,16.27
2022-08-18T18:41:06.706Z,17.73
2022-08-18T18:43:33.312Z,17.00
2022-08-18T18:46:22.815Z,18.43
2022-08-18T18:49:11.001Z,18.40
2022-08-18T18:51:56.557Z,18.17
2022-08-18T18:54:42.550Z,20.03
2022-08-18T18:57:37.869Z,21.00
2022-08-18T19:00:23.079Z,20.23
2022-08-18T19:03:31.442Z,20.67
2022-08-18T19:06:19.992Z,17.73
2022-08-18T19:08:59.470Z,19.37
2022-08-18T19:11:46.010Z,19.30
2022-08-18T19:14:26.364Z,19.70
2022-08-18T19:17:02.347Z,18.20
2022-08-18T19:19:39.346Z,17.60
2022-08-18T19:22:20.814Z,16.77
2022-08-18T19:25:04.058Z,16.83
2022-08-18T19:27:39.976Z,18.10
2022-08-18T19:30:12.446Z,19.10
2022-08-18T19:32:46.489Z,20.03
2022-08-18T19:35:19.850Z,17.20
2022-08-18T19:38:04.516Z,18.37
2022-08-18T19:40:49.262Z,17.83
2022-08-18T19:43:42.758Z,18.10
2022-08-18T19:46:51.885Z,20.20
2022-08-18T19:49:21.829Z,17.50
2022-08-18T19:51:52.301Z,19.07
2022-08-18T19:54:18.901Z,18.20
2022-08-18T19:57:03.462Z,19.37
2022-08-18T20:00:25.259Z,20.73
2022-08-18T20:03:21.187Z,20.40
2022-08-18T20:06:13.268Z,21.27
2022-08-18T20:09:03.117Z,19.83
2022-08-18T20:11:52.402Z,19.13
2022-08-18T20:14:20.323Z,19.00
2022-08-18T20:17:12.736Z,18.50
2022-08-18T20:19:47.661Z,18.93
2022-08-18T20:22:24.568Z,19.37
2022-08-18T20:25:32.731Z,19.13
2022-08-18T20:27:59.419Z,19.90
2022-08-18T20:30:33.871Z,20.13
2022-08-18T20:33:07.419Z,19.77
2022-08-18T20:35:59.258Z,19.33
2022-08-18T20:38:47.011Z,20.40
2022-08-18T20:41:29.974Z,20.17
2022-08-18T20:44:36.491Z,20.93
2022-08-18T20:47:36.513Z,20.13
2022-08-18T20:50:34.110Z,20.53
2022-08-18T20:53:39.702Z,19.60
2022-08-18T20:56:32.584Z,20.50
2022-08-18T20:59:21.137Z,20.13
2022-08-18T21:02:08.107Z,20.83
2022-08-18T21:04:45.449Z,20.47
2022-08-18T21:07:36.207Z,20.87
2022-08-18T21:10:24.679Z,21.20
2022-08-18T21:12:57.769Z,19.27
2022-08-18T21:15:36.905Z,19.50
2022-08-18T21:18:18.771Z,20.37
2022-08-18T21:20:51.134Z,20.17
2022-08-18T21:23:25.836Z,20.53
2022-08-18T21:25:57.819Z,20.90
2022-08-18T21:28:28.166Z,20.70
2022-08-18T21:31:29.089Z,21.60
2022-08-18T21:33:51.001Z,19.87
2022-08-18T21:36:20.101Z,20.60
2022-08-18T21:39:03.414Z,21.57
2022-08-18T21:41:39.104Z,20.80
2022-08-18T21:44:21.203Z,20.53
2022-08-18T21:46:48.811Z,21.90
2022-08-18T21:49:28.194Z,23.73
2022-08-18T21:51:54.912Z,22.07
2022-08-18T21:54:25.791Z,20.00
2022-08-18T21:57:22.365Z,22.17
2022-08-18T22:00:18.339Z,22.07
2022-08-18T22:02:47.034Z,22.40
2022-08-18T22:05:26.785Z,22.50
2022-08-18T22:07:53.597Z,23.40
2022-08-18T22:10:51.056Z,21.60
2022-08-18T22:13:40.387Z,23.33
2022-08-18T22:16:24.531Z,21.60
2022-08-18T22:18:51.658Z,22.13
2022-08-18T22:21:41.033Z,22.80
2022-08-18T22:24:20.216Z,22.87
2022-08-18T22:27:26.280Z,26.43
2022-08-18T22:30:03.625Z,26.17
2022-08-18T22:32:32.917Z,26.17
2022-08-18T22:34:59.838Z,25.87
2022-08-18T22:37:32.430Z,23.70
2022-08-18T22:40:10.100Z,24.73
2022-08-18T22:42:37.667Z,22.47
2022-08-18T22:45:13.262Z,21.93
2022-08-18T22:47:43.135Z,22.67
2022-08-18T22:50:12.247Z,20.50
2022-08-18T22:52:48.190Z,20.27
2022-08-18T22:55:20.250Z,22.60
2022-08-18T22:57:50.963Z,20.33
2022-08-18T23:00:22.988Z,19.83
2022-08-18T23:02:50.795Z,19.93
2022-08-18T23:05:18.082Z,18.50
2022-08-18T23:07:45.962Z,17.83
2022-08-18T23:10:14.066Z,16.80
2022-08-18T23:12:42.985Z,17.27
2022-08-18T23:15:13.156Z,15.80
2022-08-18T23:17:43.435Z,15.73
2022-08-18T23:20:17.554Z,15.60
2022-08-18T23:22:45.444Z,16.23
2022-08-18T23:25:13.192Z,16.57
2022-08-18T23:27:40.873Z,14.13
2022-08-18T23:30:08.311Z,13.10
2022-08-18T23:32:34.974Z,13.83
2022-08-18T23:35:02.275Z,14.70
2022-08-18T23:37:28.940Z,13.77
2022-08-18T23:39:55.872Z,14.60
2022-08-18T23:42:23.130Z,14.77
2022-08-18T23:44:50.142Z,13.40
2022-08-18T23:47:19.404Z,15.40
2022-08-18T23:49:46.481Z,13.87
2022-08-18T23:52:13.130Z,16.00
2022-08-18T23:54:39.789Z,15.73
2022-08-18T23:57:06.466Z,13.50
2022-08-18T23:59:33.219Z,15.57
